Terminal Aerodrome Forecast
Issued by NWS

Home | Current Version | Previous Version | Text Only | Print | Product List | Glossary On
Versions: 1 2 3 4 5 6 7 8 9 10 11 12 13 14 15 16 17 18 19 20 21 22 23 24 25 26 27 28 29 30 31 32 33
000
FTUS46 KOTX 280520
TAFCOE
TAF
KCOE 280520Z 2806/2906 18003KT P6SM FEW070 SCT100
     FM280800 14004KT P6SM VCSH BKN060 BKN090
     FM281300 13005KT P6SM VCFG SCT003
     FM281600 13005KT P6SM FEW070 FEW100
     FM281900 25006KT P6SM VCTS BKN060CB BKN120
     FM290300 11005KT P6SM VCSH SCT060 BKN120
      AMD LTD TO CLD AND VIS=

USA.gov is the U.S. government's official web portal to all federal, state and local government web resources and services.